createdAt,value
2022-08-08T00:00:54.678Z,61.25
2022-08-08T00:06:04.038Z,70.62
2022-08-08T00:12:07.498Z,63.10
2022-08-08T00:17:26.859Z,56.76
2022-08-08T00:22:49.012Z,58.99
2022-08-08T00:27:59.925Z,60.68
2022-08-08T00:33:16.723Z,66.51
2022-08-08T00:38:44.270Z,61.51
2022-08-08T00:44:35.504Z,56.13
2022-08-08T00:50:11.163Z,58.13
2022-08-08T00:55:35.779Z,60.06
2022-08-08T01:01:37.697Z,60.61
2022-08-08T01:07:55.361Z,69.62
2022-08-08T01:13:08.778Z,62.28
2022-08-08T01:19:02.586Z,57.26
2022-08-08T01:24:38.930Z,59.03
2022-08-08T01:30:03.558Z,60.65
2022-08-08T01:35:30.474Z,68.94
2022-08-08T01:41:09.875Z,63.48
2022-08-08T01:46:52.268Z,63.15
2022-08-08T01:53:54.878Z,62.57
2022-08-08T01:58:14.481Z,57.14
2022-08-08T02:03:55.090Z,56.35
2022-08-08T02:10:03.325Z,61.34
2022-08-08T02:15:41.113Z,67.75
2022-08-08T02:21:20.514Z,67.18
2022-08-08T02:27:05.763Z,66.14
2022-08-08T02:32:32.857Z,65.94
2022-08-08T02:38:30.082Z,65.16
2022-08-08T02:44:38.612Z,64.81
2022-08-08T02:50:12.568Z,63.15
2022-08-08T02:55:49.163Z,63.13
2022-08-08T03:01:47.323Z,63.09
2022-08-08T03:07:25.756Z,63.16
2022-08-08T03:15:54.562Z,63.31
2022-08-08T03:19:28.046Z,63.02
2022-08-08T03:24:32.374Z,61.44
2022-08-08T03:29:54.755Z,60.90
2022-08-08T03:35:00.999Z,61.66
2022-08-08T03:40:18.269Z,62.41
2022-08-08T03:46:03.330Z,63.09
2022-08-08T03:50:56.394Z,62.55
2022-08-08T03:56:04.439Z,61.25
2022-08-08T04:01:23.101Z,59.63
2022-08-08T04:06:36.031Z,62.64
2022-08-08T04:11:57.659Z,67.56
2022-08-08T04:17:06.846Z,64.25
2022-08-08T04:22:24.130Z,62.45
2022-08-08T04:28:01.862Z,60.03
2022-08-08T04:33:03.014Z,55.94
2022-08-08T04:38:09.547Z,59.70
2022-08-08T04:43:13.876Z,66.88
2022-08-08T04:48:22.132Z,65.01
2022-08-08T04:54:36.234Z,62.53
2022-08-08T04:58:50.888Z,60.56
2022-08-08T05:04:11.480Z,59.81
2022-08-08T05:09:21.462Z,57.72
2022-08-08T05:14:26.275Z,58.28
2022-08-08T05:20:09.787Z,60.43
2022-08-08T05:25:00.519Z,65.04
2022-08-08T05:30:06.095Z,61.37
2022-08-08T05:35:13.647Z,60.11
2022-08-08T05:40:21.577Z,56.91
2022-08-08T05:45:42.939Z,59.62
2022-08-08T05:50:58.962Z,62.92
2022-08-08T05:56:20.646Z,59.01
2022-08-08T06:01:55.470Z,58.60
2022-08-08T06:06:56.487Z,58.33
2022-08-08T06:12:05.578Z,62.42
2022-08-08T06:17:11.057Z,58.65
2022-08-08T06:22:42.065Z,58.65
2022-08-08T06:27:54.580Z,59.79
2022-08-08T06:33:02.188Z,60.26
2022-08-08T06:38:09.442Z,61.40
2022-08-08T06:43:28.826Z,57.43
2022-08-08T06:48:38.998Z,58.21
2022-08-08T06:53:50.952Z,59.49
2022-08-08T06:59:00.740Z,59.09
2022-08-08T07:04:38.778Z,56.33
2022-08-08T07:10:16.713Z,56.43
2022-08-08T07:16:04.579Z,56.09
2022-08-08T07:21:19.102Z,54.68
2022-08-08T07:26:32.983Z,55.02
2022-08-08T07:31:41.999Z,54.07
2022-08-08T07:36:50.738Z,53.89
2022-08-08T07:42:03.730Z,53.21
2022-08-08T07:47:10.743Z,51.45
2022-08-08T07:52:23.114Z,52.48
2022-08-08T07:57:59.547Z,49.76
2022-08-08T08:03:24.061Z,50.98
2022-08-08T08:09:05.657Z,50.59
2022-08-08T08:14:11.846Z,51.72
2022-08-08T08:19:23.254Z,51.29
2022-08-08T08:24:30.783Z,50.70
2022-08-08T08:29:36.919Z,49.81
2022-08-08T08:34:49.282Z,48.89
2022-08-08T08:40:01.920Z,47.34
2022-08-08T08:45:22.072Z,47.35
2022-08-08T08:50:33.910Z,46.74
2022-08-08T08:55:41.066Z,46.44
2022-08-08T09:01:09.070Z,46.26
2022-08-08T09:06:26.681Z,44.79
2022-08-08T09:11:46.921Z,42.88
2022-08-08T09:16:58.011Z,42.75
2022-08-08T09:22:07.553Z,42.53
2022-08-08T09:27:21.055Z,41.97
2022-08-08T09:33:01.350Z,43.04
2022-08-08T09:38:18.080Z,42.93
2022-08-08T09:44:04.567Z,42.64
2022-08-08T09:48:56.042Z,43.42
2022-08-08T09:54:12.894Z,44.50
2022-08-08T10:00:02.529Z,44.81
2022-08-08T10:04:53.763Z,45.52
2022-08-08T10:10:01.331Z,46.14
2022-08-08T10:15:18.063Z,45.90
2022-08-08T10:20:41.412Z,46.50
2022-08-08T10:25:57.044Z,47.22
2022-08-08T10:31:47.638Z,47.42
2022-08-08T10:36:52.626Z,47.49
2022-08-08T10:42:14.626Z,46.89
2022-08-08T10:47:21.597Z,46.90
2022-08-08T10:52:31.075Z,47.14
2022-08-08T10:57:50.245Z,47.32
2022-08-08T11:02:57.892Z,46.69
2022-08-08T11:08:37.757Z,46.05
2022-08-08T11:13:28.474Z,46.37
2022-08-08T11:18:36.876Z,46.09
2022-08-08T11:23:44.536Z,46.31
2022-08-08T11:28:51.701Z,46.08
2022-08-08T11:34:03.083Z,45.98
2022-08-08T11:39:25.407Z,46.10
2022-08-08T11:44:32.834Z,45.66
2022-08-08T11:49:38.015Z,45.11
2022-08-08T11:54:46.793Z,44.89
2022-08-08T12:00:06.012Z,44.76
2022-08-08T12:05:13.467Z,43.91
2022-08-08T12:10:22.202Z,43.64
2022-08-08T12:15:42.571Z,44.10
2022-08-08T12:20:54.155Z,44.06
2022-08-08T12:26:17.259Z,44.26
2022-08-08T12:31:39.269Z,44.59
2022-08-08T12:37:08.451Z,44.22
2022-08-08T12:42:21.028Z,44.75
2022-08-08T12:47:58.618Z,45.05
2022-08-08T12:52:55.729Z,45.10
2022-08-08T12:58:15.812Z,45.33
2022-08-08T13:03:33.352Z,45.62
2022-08-08T13:08:53.580Z,46.08
2022-08-08T13:14:15.877Z,46.45
2022-08-08T13:19:24.953Z,46.59
2022-08-08T13:24:48.929Z,46.39
2022-08-08T13:29:59.361Z,46.19
2022-08-08T13:35:11.755Z,46.60
2022-08-08T13:40:32.149Z,46.64
2022-08-08T13:45:37.744Z,46.61
2022-08-08T13:50:55.139Z,47.07
2022-08-08T13:56:06.253Z,47.20
2022-08-08T14:01:19.974Z,47.26
2022-08-08T14:06:33.170Z,47.28
2022-08-08T14:11:38.533Z,47.64
2022-08-08T14:16:53.005Z,47.71
2022-08-08T14:21:59.703Z,47.79
2022-08-08T14:27:07.514Z,48.11
2022-08-08T14:32:20.280Z,48.45
2022-08-08T14:37:43.078Z,48.68
2022-08-08T14:43:01.362Z,48.74
2022-08-08T14:48:06.338Z,48.96
2022-08-08T14:53:15.753Z,49.07
2022-08-08T14:58:20.411Z,49.50
2022-08-08T15:08:54.865Z,49.93
2022-08-08T15:14:01.631Z,50.03
2022-08-08T15:19:07.918Z,50.02
2022-08-08T15:24:15.951Z,50.35
2022-08-08T15:29:22.571Z,49.93
2022-08-08T15:34:31.773Z,49.88
2022-08-08T15:39:39.864Z,49.70
2022-08-08T15:44:44.222Z,49.65
2022-08-08T15:49:51.112Z,49.56
2022-08-08T15:54:55.789Z,49.36
2022-08-08T16:00:07.877Z,49.28
2022-08-08T16:05:23.939Z,49.30
2022-08-08T16:13:09.020Z,49.13
2022-08-08T16:15:58.926Z,49.51
2022-08-08T16:21:26.036Z,49.85
2022-08-08T16:26:40.061Z,49.94
2022-08-08T16:31:50.570Z,50.10
2022-08-08T16:36:55.286Z,50.13
2022-08-08T16:42:01.645Z,50.20
2022-08-08T16:47:40.229Z,50.28
2022-08-08T16:55:04.695Z,50.64
2022-08-08T16:58:17.972Z,51.29
2022-08-08T17:03:25.310Z,51.48
2022-08-08T17:08:47.637Z,52.30
2022-08-08T17:14:01.611Z,52.75
2022-08-08T17:19:06.303Z,53.33
2022-08-08T17:24:21.893Z,53.85
2022-08-08T17:29:36.265Z,54.48
2022-08-08T17:35:52.438Z,55.26
2022-08-08T17:40:17.580Z,55.76
2022-08-08T17:45:24.434Z,56.17
2022-08-08T17:50:28.881Z,56.76
2022-08-08T17:56:03.788Z,57.15
2022-08-08T18:01:01.100Z,57.71
2022-08-08T18:06:06.552Z,57.96
2022-08-08T18:11:25.123Z,58.26
2022-08-08T18:16:33.927Z,58.74
2022-08-08T18:22:01.305Z,59.47
2022-08-08T18:27:06.239Z,59.74
2022-08-08T18:32:24.660Z,60.22
2022-08-08T18:37:34.094Z,60.82
2022-08-08T18:42:50.241Z,60.75
2022-08-08T18:47:55.587Z,60.70
2022-08-08T18:53:00.640Z,60.91
2022-08-08T18:58:07.447Z,61.17
2022-08-08T19:03:14.724Z,61.35
2022-08-08T19:08:25.244Z,61.56
2022-08-08T19:13:52.434Z,61.54
2022-08-08T19:19:03.603Z,66.34
2022-08-08T19:24:18.396Z,64.74
2022-08-08T19:29:35.617Z,59.52
2022-08-08T19:34:44.954Z,55.75
2022-08-08T19:39:51.049Z,56.41
2022-08-08T19:44:55.270Z,57.39
2022-08-08T19:50:12.577Z,58.63
2022-08-08T19:55:19.529Z,59.62
2022-08-08T20:00:33.263Z,60.26
2022-08-08T20:06:15.281Z,60.07
2022-08-08T20:11:02.747Z,61.49
2022-08-08T20:16:07.772Z,66.69
2022-08-08T20:21:12.966Z,65.28
2022-08-08T20:26:18.705Z,60.20
2022-08-08T20:32:06.896Z,56.14
2022-08-08T20:36:57.615Z,57.16
2022-08-08T20:42:01.914Z,58.70
2022-08-08T20:47:22.985Z,59.36
2022-08-08T20:52:30.884Z,60.18
2022-08-08T20:57:35.720Z,60.99
2022-08-08T21:02:52.813Z,61.67
2022-08-08T21:08:35.161Z,64.68
2022-08-08T21:13:39.936Z,64.96
2022-08-08T21:18:45.267Z,65.01
2022-08-08T21:24:02.879Z,65.59
2022-08-08T21:29:11.983Z,65.65
2022-08-08T21:34:24.011Z,65.38
2022-08-08T21:39:54.945Z,64.75
2022-08-08T21:45:01.116Z,65.36
2022-08-08T21:50:22.641Z,64.82
2022-08-08T21:56:19.748Z,64.46
2022-08-08T22:00:55.125Z,66.90
2022-08-08T22:06:00.128Z,67.54
2022-08-08T22:12:03.040Z,66.98
2022-08-08T22:16:33.465Z,68.08
2022-08-08T22:21:37.806Z,68.09
2022-08-08T22:27:01.233Z,69.05
2022-08-08T22:32:06.776Z,69.20
2022-08-08T22:37:27.592Z,69.87
2022-08-08T22:42:36.526Z,70.18
2022-08-08T22:47:47.395Z,70.01
2022-08-08T22:54:31.734Z,70.09
2022-08-08T22:58:28.871Z,69.66
2022-08-08T23:03:53.574Z,69.45
2022-08-08T23:09:00.173Z,69.83
2022-08-08T23:14:04.931Z,70.42
2022-08-08T23:19:09.215Z,70.58
2022-08-08T23:24:13.459Z,71.17
2022-08-08T23:29:29.904Z,71.81
2022-08-08T23:34:36.070Z,72.34
2022-08-08T23:39:41.866Z,72.17
2022-08-08T23:44:53.432Z,71.65
2022-08-08T23:50:00.958Z,71.68
2022-08-08T23:55:22.358Z,72.42
